createdAt,value
2018-03-17T00:00:34.253Z,0
2018-03-17T00:01:33.966Z,0
2018-03-17T00:02:34.207Z,0
2018-03-17T00:03:34.768Z,0
2018-03-17T00:04:34.689Z,0
2018-03-17T00:05:33.864Z,0
2018-03-17T00:06:34.100Z,0
2018-03-17T00:07:34.344Z,0
2018-03-17T00:08:34.322Z,0
2018-03-17T00:09:34.034Z,0
2018-03-17T00:10:34.011Z,0
2018-03-17T00:11:33.982Z,0
2018-03-17T00:12:34.219Z,0
2018-03-17T00:13:33.929Z,0
2018-03-17T00:14:33.905Z,0
2018-03-17T00:15:34.151Z,0
2018-03-17T00:16:34.120Z,0
2018-03-17T00:17:34.368Z,0
2018-03-17T00:18:33.805Z,0
2018-03-17T00:19:34.309Z,0
2018-03-17T00:20:34.301Z,0
2018-03-17T00:21:33.739Z,0
2018-03-17T00:22:34.248Z,0
2018-03-17T00:23:33.952Z,0
2018-03-17T00:24:33.922Z,0
2018-03-17T00:25:33.892Z,0
2018-03-17T00:26:33.883Z,0
2018-03-17T00:27:33.853Z,0
2018-03-17T00:28:34.093Z,0
2018-03-17T00:29:33.813Z,0
2018-03-17T00:30:33.779Z,0
2018-03-17T00:31:33.489Z,0
2018-03-17T00:32:33.457Z,0
2018-03-17T00:33:33.434Z,0
2018-03-17T00:34:33.416Z,0
2018-03-17T00:35:33.389Z,0
2018-03-17T00:36:33.636Z,0
2018-03-17T00:37:33.869Z,0
2018-03-17T00:38:33.578Z,0
2018-03-17T00:39:33.332Z,0
2018-03-17T00:40:33.526Z,0
2018-03-17T00:41:33.502Z,0
2018-03-17T00:42:33.474Z,0
2018-03-17T00:43:33.443Z,0
2018-03-17T00:44:33.164Z,0
2018-03-17T00:45:33.401Z,0
2018-03-17T00:46:33.637Z,0
2018-03-17T00:47:33.364Z,0
2018-03-17T00:48:33.332Z,0
2018-03-17T00:49:33.316Z,0
2018-03-17T00:50:32.744Z,0
2018-03-17T00:51:33.247Z,0
2018-03-17T00:52:33.240Z,0
2018-03-17T00:53:32.933Z,0
2018-03-17T00:54:33.174Z,0
2018-03-17T00:55:33.416Z,0
2018-03-17T00:56:32.854Z,0
2018-03-17T00:57:33.184Z,0
2018-03-17T00:58:33.081Z,0
2018-03-17T00:59:33.314Z,0
2018-03-17T01:00:33.028Z,0
2018-03-17T01:01:33.023Z,0
2018-03-17T01:02:33.240Z,0
2018-03-17T01:03:32.956Z,0
2018-03-17T01:04:32.919Z,0
2018-03-17T01:05:33.178Z,0
2018-03-17T01:06:32.612Z,0
2018-03-17T01:07:32.860Z,0
2018-03-17T01:08:32.820Z,0
2018-03-17T01:09:32.798Z,0
2018-03-17T01:10:32.778Z,0
2018-03-17T01:11:32.485Z,0
2018-03-17T01:12:32.992Z,0
2018-03-17T01:13:32.704Z,0
2018-03-17T01:14:32.409Z,0
2018-03-17T01:15:32.910Z,0
2018-03-17T01:16:32.090Z,0
2018-03-17T01:17:32.342Z,0
2018-03-17T01:18:32.835Z,0
2018-03-17T01:19:32.555Z,0
2018-03-17T01:20:32.272Z,0
2018-03-17T01:21:32.249Z,0
2018-03-17T01:22:32.206Z,0
2018-03-17T01:23:32.462Z,0
2018-03-17T01:24:32.157Z,0
2018-03-17T01:25:32.183Z,0
2018-03-17T01:26:32.369Z,0
2018-03-17T01:27:32.348Z,0
2018-03-17T01:28:32.323Z,0
2018-03-17T01:29:32.026Z,0
2018-03-17T01:30:32.005Z,0
2018-03-17T01:31:31.980Z,0
2018-03-17T01:32:32.484Z,0
2018-03-17T01:33:32.196Z,0
2018-03-17T01:34:31.640Z,0
2018-03-17T01:35:32.149Z,0
2018-03-17T01:36:31.592Z,0
2018-03-17T01:37:31.830Z,0
2018-03-17T01:38:31.810Z,0
2018-03-17T01:39:31.520Z,0
2018-03-17T01:40:32.027Z,0
2018-03-17T01:41:31.731Z,0
2018-03-17T01:42:31.714Z,0
2018-03-17T01:43:31.676Z,0
2018-03-17T01:44:31.662Z,0
2018-03-17T01:45:31.632Z,0
2018-03-17T01:46:31.605Z,0
2018-03-17T01:47:31.845Z,0
2018-03-17T01:48:32.088Z,0
2018-03-17T01:49:31.738Z,0
2018-03-17T01:50:32.040Z,0
2018-03-17T01:51:31.474Z,0
2018-03-17T01:52:31.721Z,0
2018-03-17T01:53:31.691Z,0
2018-03-17T01:54:31.666Z,0
2018-03-17T01:55:31.111Z,0
2018-03-17T01:56:31.618Z,0
2018-03-17T01:57:31.857Z,0
2018-03-17T01:58:31.570Z,0
2018-03-17T01:59:31.554Z,0
2018-03-17T02:00:31.253Z,0
2018-03-17T02:01:31.230Z,0
2018-03-17T02:02:31.466Z,0
2018-03-17T02:03:31.182Z,0
2018-03-17T02:04:30.889Z,0
2018-03-17T02:05:31.396Z,0
2018-03-17T02:06:30.835Z,0
2018-03-17T02:07:31.339Z,0
2018-03-17T02:08:31.587Z,0
2018-03-17T02:09:31.035Z,0
2018-03-17T02:10:31.272Z,0
2018-03-17T02:11:31.258Z,0
2018-03-17T02:12:30.954Z,0
2018-03-17T02:13:30.927Z,0
2018-03-17T02:14:30.903Z,0
2018-03-17T02:15:31.409Z,0
2018-03-17T02:16:31.117Z,0
2018-03-17T02:17:31.094Z,0
2018-03-17T02:18:30.538Z,0
2018-03-17T02:19:30.513Z,0
2018-03-17T02:20:31.294Z,0
2018-03-17T02:21:30.729Z,0
2018-03-17T02:22:31.234Z,0
2018-03-17T02:23:30.685Z,0
2018-03-17T02:24:30.391Z,0
2018-03-17T02:25:30.886Z,0
2018-03-17T02:26:30.869Z,0
2018-03-17T02:27:30.842Z,0
2018-03-17T02:28:30.818Z,0
2018-03-17T02:29:30.539Z,0
2018-03-17T02:30:31.043Z,0
2018-03-17T02:31:30.755Z,0
2018-03-17T02:32:30.998Z,0
2018-03-17T02:33:30.178Z,0
2018-03-17T02:34:30.412Z,0
2018-03-17T02:35:30.645Z,0
2018-03-17T02:36:30.892Z,0
2018-03-17T02:37:30.336Z,0
2018-03-17T02:38:30.576Z,0
2018-03-17T02:39:30.288Z,0
2018-03-17T02:40:30.275Z,0
2018-03-17T02:41:30.501Z,0
2018-03-17T02:42:30.735Z,0
2018-03-17T02:43:29.914Z,0
2018-03-17T02:44:30.151Z,0
2018-03-17T02:45:30.694Z,0
2018-03-17T02:46:29.840Z,0
2018-03-17T02:47:30.083Z,0
2018-03-17T02:48:30.070Z,0
2018-03-17T02:49:30.374Z,0
2018-03-17T02:50:30.021Z,0
2018-03-17T02:51:30.254Z,0
2018-03-17T02:52:30.015Z,0
2018-03-17T02:53:29.934Z,0
2018-03-17T02:54:29.644Z,0
2018-03-17T02:55:30.155Z,0
2018-03-17T02:56:30.383Z,0
2018-03-17T02:57:30.102Z,0
2018-03-17T02:58:29.536Z,0
2018-03-17T02:59:29.788Z,0
2018-03-17T03:00:29.768Z,0
2018-03-17T03:01:30.023Z,0
2018-03-17T03:02:29.975Z,0
2018-03-17T03:03:29.951Z,0
2018-03-17T03:04:29.915Z,0
2018-03-17T03:05:29.645Z,0
2018-03-17T03:06:29.604Z,0
2018-03-17T03:07:30.130Z,0
2018-03-17T03:08:30.080Z,0
2018-03-17T03:09:30.061Z,0
2018-03-17T03:10:29.801Z,0
2018-03-17T03:11:29.473Z,0
2018-03-17T03:12:29.977Z,0
2018-03-17T03:13:29.803Z,0
2018-03-17T03:14:29.131Z,0
2018-03-17T03:15:29.104Z,0
2018-03-17T03:16:29.614Z,0
2018-03-17T03:17:29.586Z,0
2018-03-17T03:18:29.297Z,0
2018-03-17T03:19:29.002Z,0
2018-03-17T03:20:29.508Z,0
2018-03-17T03:21:28.952Z,0
2018-03-17T03:22:29.196Z,0
2018-03-17T03:23:28.899Z,0
2018-03-17T03:24:29.405Z,0
2018-03-17T03:25:29.644Z,0
2018-03-17T03:26:29.355Z,0
2018-03-17T03:27:29.599Z,0
2018-03-17T03:28:29.051Z,0
2018-03-17T03:29:29.542Z,0
2018-03-17T03:30:29.005Z,0
2018-03-17T03:31:29.241Z,0
2018-03-17T03:32:29.216Z,0
2018-03-17T03:33:28.911Z,0
2018-03-17T03:34:29.154Z,0
2018-03-17T03:35:29.125Z,0
2018-03-17T03:36:28.834Z,0
2018-03-17T03:37:29.078Z,0
2018-03-17T03:38:29.055Z,0
2018-03-17T03:39:29.290Z,0
2018-03-17T03:40:28.733Z,0
2018-03-17T03:41:28.707Z,0
2018-03-17T03:42:28.948Z,0
2018-03-17T03:43:28.920Z,0
2018-03-17T03:44:28.630Z,0
2018-03-17T03:45:28.879Z,0
2018-03-17T03:46:28.579Z,0
2018-03-17T03:47:29.089Z,0
2018-03-17T03:48:28.524Z,0
2018-03-17T03:49:28.973Z,0
2018-03-17T03:50:28.250Z,0
2018-03-17T03:51:28.456Z,0
2018-03-17T03:52:28.169Z,0
2018-03-17T03:53:28.963Z,0
2018-03-17T03:54:28.372Z,0
2018-03-17T03:55:28.355Z,0
2018-03-17T03:56:28.330Z,0
2018-03-17T03:57:28.568Z,0
2018-03-17T03:58:28.540Z,0
2018-03-17T03:59:28.779Z,0
2018-03-17T04:00:28.223Z,0
2018-03-17T04:01:28.463Z,0
2018-03-17T04:02:28.439Z,0
2018-03-17T04:03:28.730Z,0
2018-03-17T04:04:28.117Z,0
2018-03-17T04:05:28.360Z,0
2018-03-17T04:06:27.805Z,0
2018-03-17T04:07:28.573Z,0
2018-03-17T04:08:28.281Z,0
2018-03-17T04:09:27.994Z,0
2018-03-17T04:10:28.233Z,0
2018-03-17T04:11:28.205Z,0
2018-03-17T04:12:27.925Z,0
2018-03-17T04:13:27.886Z,0
2018-03-17T04:14:28.136Z,0
2018-03-17T04:15:28.101Z,0
2018-03-17T04:16:27.812Z,0
2018-03-17T04:17:28.319Z,0
2018-03-17T04:18:28.293Z,0
2018-03-17T04:19:27.743Z,0
2018-03-17T04:20:27.709Z,0
2018-03-17T04:21:27.955Z,0
2018-03-17T04:22:28.186Z,0
2018-03-17T04:23:27.629Z,0
2018-03-17T04:24:27.869Z,0
2018-03-17T04:25:27.840Z,0
2018-03-17T04:26:27.823Z,0
2018-03-17T04:27:27.528Z,0
2018-03-17T04:28:28.088Z,0
2018-03-17T04:29:27.741Z,0
2018-03-17T04:30:27.712Z,0
2018-03-17T04:31:27.692Z,0
2018-03-17T04:32:27.661Z,0
2018-03-17T04:33:27.897Z,0
2018-03-17T04:34:27.616Z,0
2018-03-17T04:35:27.320Z,0
2018-03-17T04:36:27.303Z,0
2018-03-17T04:37:27.266Z,0
2018-03-17T04:38:27.510Z,0
2018-03-17T04:39:27.215Z,0
2018-03-17T04:40:27.191Z,0
2018-03-17T04:41:27.431Z,0
2018-03-17T04:42:27.401Z,0
2018-03-17T04:43:27.384Z,0
2018-03-17T04:44:27.083Z,0
2018-03-17T04:45:27.063Z,0
2018-03-17T04:46:27.034Z,0
2018-03-17T04:47:27.275Z,0
2018-03-17T04:48:27.275Z,0
2018-03-17T04:49:27.529Z,0
2018-03-17T04:50:27.197Z,0
2018-03-17T04:51:27.491Z,0
2018-03-17T04:52:27.200Z,0
2018-03-17T04:53:27.386Z,0
2018-03-17T04:54:27.090Z,0
2018-03-17T04:55:27.068Z,0
2018-03-17T04:56:27.313Z,0
2018-03-17T04:57:26.756Z,0
2018-03-17T04:58:26.987Z,0
2018-03-17T04:59:26.747Z,0
2018-03-17T05:00:26.942Z,0
2018-03-17T05:01:26.383Z,0
2018-03-17T05:02:26.617Z,0
2018-03-17T05:03:27.122Z,0
2018-03-17T05:04:26.570Z,0
2018-03-17T05:05:26.805Z,0
2018-03-17T05:06:26.794Z,0
2018-03-17T05:07:26.763Z,0
2018-03-17T05:08:26.736Z,0
2018-03-17T05:09:26.717Z,0
2018-03-17T05:10:26.953Z,0
2018-03-17T05:11:26.392Z,0
2018-03-17T05:12:26.897Z,0
2018-03-17T05:13:26.340Z,0
2018-03-17T05:14:26.573Z,4
2018-03-17T05:15:26.016Z,0
2018-03-17T05:16:26.266Z,0
2018-03-17T05:17:26.505Z,4
2018-03-17T05:18:26.465Z,4
2018-03-17T05:19:26.446Z,4
2018-03-17T05:20:26.688Z,8
2018-03-17T05:21:26.655Z,4
2018-03-17T05:22:26.363Z,4
2018-03-17T05:23:26.069Z,8
2018-03-17T05:24:26.046Z,12
2018-03-17T05:25:26.077Z,8
2018-03-17T05:26:26.262Z,8
2018-03-17T05:27:26.232Z,12
2018-03-17T05:28:26.208Z,16
2018-03-17T05:29:26.211Z,16
2018-03-17T05:30:25.630Z,20
2018-03-17T05:31:25.596Z,20
2018-03-17T05:32:26.370Z,28
2018-03-17T05:33:26.430Z,32
2018-03-17T05:34:26.316Z,32
2018-03-17T05:35:26.035Z,40
2018-03-17T05:36:25.996Z,40
2018-03-17T05:37:25.712Z,44
2018-03-17T05:38:25.952Z,52
2018-03-17T05:39:26.225Z,60
2018-03-17T05:40:25.890Z,60
2018-03-17T05:41:25.607Z,68
2018-03-17T05:42:25.588Z,68
2018-03-17T05:43:26.156Z,80
2018-03-17T05:44:25.524Z,88
2018-03-17T05:45:25.764Z,92
2018-03-17T05:46:25.752Z,88
2018-03-17T05:47:25.731Z,104
2018-03-17T05:48:25.688Z,112
2018-03-17T05:49:26.138Z,144
2018-03-17T05:50:25.725Z,168
2018-03-17T05:51:25.342Z,192
2018-03-17T05:52:25.317Z,204
2018-03-17T05:53:25.557Z,236
2018-03-17T05:54:25.802Z,264
2018-03-17T05:55:25.768Z,264
2018-03-17T05:56:25.213Z,288
2018-03-17T05:57:25.449Z,300
2018-03-17T05:58:25.478Z,324
2018-03-17T05:59:25.405Z,348
2018-03-17T06:00:25.642Z,372
2018-03-17T06:01:24.817Z,420
2018-03-17T06:02:25.322Z,444
2018-03-17T06:03:25.028Z,492
2018-03-17T06:04:25.625Z,476
2018-03-17T06:05:25.573Z,492
2018-03-17T06:06:25.482Z,548
2018-03-17T06:07:25.470Z,544
2018-03-17T06:08:25.174Z,508
2018-03-17T06:09:25.169Z,544
2018-03-17T06:10:25.182Z,676
2018-03-17T06:11:25.092Z,692
2018-03-17T06:12:24.530Z,664
2018-03-17T06:13:25.309Z,680
2018-03-17T06:14:25.044Z,748
2018-03-17T06:15:24.453Z,704
2018-03-17T06:16:24.699Z,692
2018-03-17T06:17:24.678Z,628
2018-03-17T06:18:25.165Z,640
2018-03-17T06:19:24.614Z,684
2018-03-17T06:20:24.639Z,708
2018-03-17T06:21:24.837Z,812
2018-03-17T06:22:25.077Z,932
2018-03-17T06:23:24.890Z,952
2018-03-17T06:24:24.482Z,932
2018-03-17T06:25:24.827Z,1000
2018-03-17T06:26:24.694Z,980
2018-03-17T06:27:24.401Z,896
2018-03-17T06:28:24.918Z,928
2018-03-17T06:29:24.882Z,848
2018-03-17T06:30:24.592Z,892
2018-03-17T06:31:24.036Z,972
2018-03-17T06:32:24.307Z,1080
2018-03-17T06:33:24.242Z,1028
2018-03-17T06:34:24.500Z,1064
2018-03-17T06:35:24.459Z,1192
2018-03-17T06:36:24.187Z,1332
2018-03-17T06:37:24.408Z,1388
2018-03-17T06:38:24.123Z,1384
2018-03-17T06:39:24.629Z,1520
2018-03-17T06:40:24.064Z,1340
2018-03-17T06:41:23.782Z,1268
2018-03-17T06:42:23.743Z,1264
2018-03-17T06:43:24.274Z,1068
2018-03-17T06:44:23.689Z,1100
2018-03-17T06:45:24.200Z,992
2018-03-17T06:46:23.902Z,1180
2018-03-17T06:47:24.144Z,1320
2018-03-17T06:48:23.851Z,1184
2018-03-17T06:49:24.088Z,1428
2018-03-17T06:50:24.071Z,1544
2018-03-17T06:51:24.037Z,1516
2018-03-17T06:52:23.747Z,1680
2018-03-17T06:53:24.258Z,1596
2018-03-17T06:54:23.697Z,1564
2018-03-17T06:55:23.674Z,1412
2018-03-17T06:56:23.900Z,1132
2018-03-17T06:57:23.880Z,1144
2018-03-17T06:58:23.327Z,1052
2018-03-17T06:59:24.094Z,968
2018-03-17T07:00:23.538Z,1244
2018-03-17T07:01:24.044Z,1300
2018-03-17T07:02:23.753Z,1312
2018-03-17T07:03:23.753Z,1212
2018-03-17T07:04:23.187Z,1524
2018-03-17T07:05:23.414Z,1528
2018-03-17T07:06:23.649Z,1460
2018-03-17T07:07:23.626Z,1452
2018-03-17T07:08:23.327Z,1568
2018-03-17T07:09:23.566Z,1432
2018-03-17T07:10:23.817Z,1352
2018-03-17T07:11:23.567Z,1488
2018-03-17T07:12:23.917Z,1388
2018-03-17T07:13:23.474Z,1584
2018-03-17T07:14:23.460Z,1728
2018-03-17T07:15:23.683Z,1800
2018-03-17T07:16:23.383Z,1760
2018-03-17T07:17:23.092Z,1860
2018-03-17T07:18:23.338Z,1744
2018-03-17T07:19:23.316Z,1788
2018-03-17T07:20:23.291Z,1836
2018-03-17T07:21:22.994Z,1712
2018-03-17T07:22:23.236Z,1772
2018-03-17T07:23:23.216Z,1612
2018-03-17T07:24:22.651Z,1728
2018-03-17T07:25:23.047Z,1952
2018-03-17T07:26:22.860Z,2048
2018-03-17T07:27:23.368Z,1712
2018-03-17T07:28:22.814Z,1848
2018-03-17T07:29:23.047Z,1884
2018-03-17T07:30:22.756Z,1976
2018-03-17T07:31:22.996Z,2056
2018-03-17T07:32:22.972Z,1912
2018-03-17T07:33:22.684Z,2136
2018-03-17T07:34:22.919Z,2192
2018-03-17T07:35:23.156Z,2236
2018-03-17T07:36:23.146Z,2276
2018-03-17T07:37:22.839Z,2204
2018-03-17T07:38:22.560Z,1900
2018-03-17T07:39:22.528Z,2028
2018-03-17T07:40:22.766Z,2012
2018-03-17T07:41:22.481Z,1840
2018-03-17T07:42:22.451Z,1764
2018-03-17T07:43:22.951Z,1860
2018-03-17T07:44:22.924Z,1756
2018-03-17T07:45:22.698Z,1868
2018-03-17T07:46:22.340Z,1748
2018-03-17T07:47:22.845Z,1728
2018-03-17T07:48:22.571Z,1752
2018-03-17T07:49:22.467Z,1908
2018-03-17T07:50:22.764Z,1972
2018-03-17T07:51:22.232Z,2264
2018-03-17T07:52:22.178Z,2300
2018-03-17T07:53:22.687Z,2232
2018-03-17T07:54:22.389Z,2396
2018-03-17T07:55:22.100Z,2216
2018-03-17T07:56:22.077Z,2444
2018-03-17T07:57:22.561Z,2200
2018-03-17T07:58:22.031Z,2308
2018-03-17T07:59:22.271Z,2500
2018-03-17T08:00:22.246Z,2680
2018-03-17T08:01:22.213Z,2932
2018-03-17T08:02:22.465Z,3348
2018-03-17T08:03:21.892Z,3768
2018-03-17T08:04:22.134Z,3864
2018-03-17T08:05:22.123Z,4188
2018-03-17T08:06:21.825Z,4200
2018-03-17T08:07:21.792Z,4052
2018-03-17T08:08:22.304Z,4164
2018-03-17T08:09:21.742Z,4528
2018-03-17T08:10:21.977Z,4472
2018-03-17T08:11:21.692Z,4220
2018-03-17T08:12:21.662Z,4456
2018-03-17T08:13:22.185Z,4416
2018-03-17T08:14:21.917Z,4332
2018-03-17T08:15:21.851Z,3888
2018-03-17T08:16:21.828Z,3384
2018-03-17T08:17:21.789Z,3640
2018-03-17T08:18:21.514Z,3604
2018-03-17T08:19:22.058Z,3392
2018-03-17T08:20:21.452Z,3052
2018-03-17T08:21:21.423Z,3492
2018-03-17T08:22:21.194Z,3844
2018-03-17T08:23:21.908Z,3872
2018-03-17T08:24:21.084Z,4000
2018-03-17T08:25:21.662Z,3984
2018-03-17T08:26:21.311Z,3908
2018-03-17T08:27:21.805Z,3972
2018-03-17T08:28:21.777Z,4372
2018-03-17T08:29:21.483Z,4732
2018-03-17T08:30:21.463Z,4536
2018-03-17T08:31:21.497Z,4356
2018-03-17T08:32:21.411Z,3444
2018-03-17T08:33:21.692Z,3584
2018-03-17T08:34:21.653Z,3576
2018-03-17T08:35:21.061Z,3604
2018-03-17T08:36:21.307Z,3608
2018-03-17T08:37:21.011Z,4112
2018-03-17T08:38:21.520Z,3900
2018-03-17T08:39:20.962Z,4168
2018-03-17T08:40:20.936Z,4536
2018-03-17T08:41:21.173Z,4304
2018-03-17T08:42:20.913Z,4480
2018-03-17T08:43:21.471Z,4440
2018-03-17T08:44:21.109Z,4312
2018-03-17T08:45:21.077Z,4832
2018-03-17T08:46:21.049Z,5204
2018-03-17T08:47:21.302Z,5320
2018-03-17T08:48:20.997Z,5420
2018-03-17T08:49:21.246Z,5240
2018-03-17T08:50:21.221Z,5080
2018-03-17T08:51:21.185Z,5672
2018-03-17T08:52:20.901Z,5824
2018-03-17T08:53:20.876Z,5496
2018-03-17T08:54:20.847Z,4948
2018-03-17T08:55:20.284Z,4900
2018-03-17T08:56:20.808Z,5220
2018-03-17T08:57:20.764Z,5104
2018-03-17T08:58:20.747Z,5436
2018-03-17T08:59:20.772Z,5380
2018-03-17T09:00:20.689Z,5264
2018-03-17T09:01:20.666Z,5520
2018-03-17T09:02:20.487Z,5396
2018-03-17T09:03:20.616Z,5744
2018-03-17T09:04:20.059Z,5656
2018-03-17T09:05:20.299Z,5044
2018-03-17T09:06:20.799Z,5172
2018-03-17T09:07:19.979Z,4944
2018-03-17T09:08:20.750Z,4776
2018-03-17T09:09:20.483Z,4672
2018-03-17T09:10:20.174Z,4652
2018-03-17T09:11:20.144Z,5624
2018-03-17T09:12:19.864Z,5916
2018-03-17T09:13:20.108Z,5488
2018-03-17T09:14:20.065Z,4688
2018-03-17T09:15:19.785Z,5712
2018-03-17T09:16:19.754Z,6700
2018-03-17T09:17:20.259Z,6980
2018-03-17T09:18:20.230Z,6536
2018-03-17T09:19:20.215Z,7564
2018-03-17T09:20:20.181Z,6344
2018-03-17T09:21:19.897Z,5692
2018-03-17T09:22:20.140Z,7452
2018-03-17T09:23:20.155Z,6784
2018-03-17T09:24:20.191Z,7344
2018-03-17T09:25:20.326Z,7120
2018-03-17T09:26:20.296Z,7060
2018-03-17T09:27:20.282Z,7244
2018-03-17T09:28:19.446Z,7336
2018-03-17T09:29:19.689Z,5640
2018-03-17T09:30:19.669Z,5740
2018-03-17T09:31:20.169Z,7436
2018-03-17T09:32:19.613Z,4952
2018-03-17T09:33:19.320Z,5772
2018-03-17T09:34:20.086Z,6576
2018-03-17T09:35:19.539Z,6868
2018-03-17T09:36:19.770Z,5172
2018-03-17T09:37:19.485Z,5004
2018-03-17T09:38:19.727Z,5052
2018-03-17T09:39:19.711Z,5304
2018-03-17T09:40:19.950Z,5044
2018-03-17T09:41:19.913Z,5332
2018-03-17T09:42:19.692Z,6016
2018-03-17T09:43:19.864Z,5432
2018-03-17T09:44:19.852Z,4784
2018-03-17T09:45:19.816Z,5784
2018-03-17T09:46:19.535Z,6680
2018-03-17T09:47:19.240Z,6436
2018-03-17T09:48:18.942Z,6804
2018-03-17T09:49:20.314Z,7756
2018-03-17T09:50:18.887Z,6624
2018-03-17T09:51:19.706Z,5592
2018-03-17T09:52:19.576Z,5880
2018-03-17T09:53:19.620Z,6840
2018-03-17T09:54:19.104Z,6424
2018-03-17T09:55:19.301Z,5088
2018-03-17T09:56:19.016Z,5616
2018-03-17T09:57:19.566Z,5528
2018-03-17T09:58:19.008Z,5552
2018-03-17T09:59:19.471Z,5744
2018-03-17T10:00:19.516Z,5696
2018-03-17T10:01:19.150Z,6704
2018-03-17T10:02:19.124Z,7300
2018-03-17T10:03:19.099Z,6588
2018-03-17T10:04:19.089Z,7824
2018-03-17T10:05:19.050Z,8820
2018-03-17T10:06:18.757Z,8676
2018-03-17T10:07:18.732Z,7576
2018-03-17T10:08:19.237Z,6904
2018-03-17T10:09:18.948Z,6616
2018-03-17T10:10:18.655Z,7408
2018-03-17T10:11:18.369Z,6728
2018-03-17T10:12:18.875Z,8540
2018-03-17T10:13:18.326Z,7560
2018-03-17T10:14:18.878Z,7460
2018-03-17T10:15:18.269Z,7776
2018-03-17T10:16:18.507Z,7916
2018-03-17T10:17:19.015Z,7704
2018-03-17T10:18:18.996Z,8392
2018-03-17T10:19:18.697Z,9592
2018-03-17T10:20:18.406Z,7236
2018-03-17T10:21:18.380Z,7384
2018-03-17T10:22:18.095Z,7736
2018-03-17T10:23:18.331Z,8788
2018-03-17T10:24:18.348Z,8536
2018-03-17T10:25:18.821Z,7228
2018-03-17T10:26:18.529Z,6776
2018-03-17T10:27:18.243Z,8064
2018-03-17T10:28:18.209Z,9188
2018-03-17T10:29:18.711Z,9936
2018-03-17T10:30:18.164Z,11588
2018-03-17T10:31:18.428Z,12328
2018-03-17T10:32:18.646Z,15388
2018-03-17T10:33:17.839Z,13568
2018-03-17T10:34:18.680Z,10964
2018-03-17T10:35:18.097Z,10632
2018-03-17T10:36:18.299Z,9464
2018-03-17T10:37:18.251Z,10768
2018-03-17T10:38:18.229Z,9112
2018-03-17T10:39:17.676Z,7152
2018-03-17T10:40:17.910Z,6852
2018-03-17T10:41:18.163Z,7940
2018-03-17T10:42:18.198Z,6592
2018-03-17T10:43:18.111Z,5744
2018-03-17T10:44:18.092Z,7352
2018-03-17T10:45:17.522Z,7264
2018-03-17T10:46:17.766Z,7056
2018-03-17T10:47:18.013Z,7468
2018-03-17T10:48:17.451Z,7632
2018-03-17T10:49:17.956Z,8464
2018-03-17T10:50:17.928Z,7896
2018-03-17T10:51:17.912Z,6768
2018-03-17T10:52:17.880Z,6912
2018-03-17T10:53:17.323Z,7844
2018-03-17T10:54:17.874Z,8212
2018-03-17T10:55:17.809Z,7280
2018-03-17T10:56:17.788Z,7164
2018-03-17T10:57:17.774Z,8664
2018-03-17T10:58:17.745Z,7688
2018-03-17T10:59:17.710Z,7956
2018-03-17T11:00:17.475Z,9216
2018-03-17T11:01:17.389Z,8156
2018-03-17T11:02:17.900Z,7584
2018-03-17T11:03:17.617Z,8936
2018-03-17T11:04:17.877Z,9140
2018-03-17T11:05:17.307Z,8352
2018-03-17T11:06:17.974Z,8112
2018-03-17T11:07:17.243Z,8368
2018-03-17T11:08:17.745Z,8696
2018-03-17T11:09:17.468Z,8060
2018-03-17T11:10:17.143Z,8996
2018-03-17T11:11:17.465Z,8908
2018-03-17T11:12:17.390Z,9948
2018-03-17T11:13:17.100Z,9692
2018-03-17T11:14:17.195Z,9508
2018-03-17T11:15:17.329Z,9720
2018-03-17T11:16:17.552Z,10064
2018-03-17T11:17:17.269Z,10584
2018-03-17T11:18:17.000Z,12304
2018-03-17T11:19:17.482Z,11092
2018-03-17T11:20:17.607Z,10056
2018-03-17T11:21:16.634Z,9804
2018-03-17T11:22:16.879Z,8680
2018-03-17T11:23:17.145Z,7640
2018-03-17T11:24:17.103Z,7332
2018-03-17T11:25:17.339Z,7072
2018-03-17T11:26:17.116Z,8984
2018-03-17T11:27:16.750Z,9712
2018-03-17T11:28:16.988Z,9328
2018-03-17T11:29:16.964Z,7244
2018-03-17T11:30:16.940Z,6184
2018-03-17T11:31:17.199Z,5612
2018-03-17T11:32:16.634Z,5912
2018-03-17T11:33:16.871Z,5780
2018-03-17T11:34:17.173Z,5352
2018-03-17T11:35:16.611Z,4828
2018-03-17T11:36:16.793Z,4596
2018-03-17T11:37:16.511Z,5096
2018-03-17T11:38:16.479Z,6468
2018-03-17T11:39:16.723Z,6940
2018-03-17T11:40:16.440Z,7324
2018-03-17T11:41:16.966Z,7292
2018-03-17T11:42:16.973Z,7464
2018-03-17T11:43:16.904Z,8496
2018-03-17T11:44:16.916Z,10100
2018-03-17T11:45:16.310Z,9368
2018-03-17T11:46:16.546Z,9252
2018-03-17T11:47:15.988Z,9648
2018-03-17T11:48:15.966Z,9676
2018-03-17T11:49:16.212Z,8180
2018-03-17T11:50:16.648Z,9736
2018-03-17T11:51:16.159Z,9424
2018-03-17T11:52:15.865Z,8416
2018-03-17T11:53:16.648Z,8316
2018-03-17T11:54:16.075Z,8728
2018-03-17T11:55:16.057Z,8272
2018-03-17T11:56:16.307Z,8964
2018-03-17T11:57:16.007Z,8012
2018-03-17T11:58:16.255Z,8400
2018-03-17T11:59:16.491Z,7080
2018-03-17T12:00:16.204Z,7272
2018-03-17T12:01:15.904Z,5584
2018-03-17T12:02:16.152Z,6288
2018-03-17T12:03:16.126Z,5332
2018-03-17T12:04:16.374Z,6504
2018-03-17T12:05:15.812Z,7476
2018-03-17T12:06:16.051Z,7356
2018-03-17T12:07:16.027Z,6788
2018-03-17T12:08:15.474Z,7540
2018-03-17T12:09:16.250Z,7508
2018-03-17T12:10:15.994Z,8412
2018-03-17T12:11:15.937Z,7928
2018-03-17T12:12:15.432Z,7776
2018-03-17T12:13:15.668Z,7324
2018-03-17T12:14:15.861Z,6460
2018-03-17T12:15:15.829Z,6384
2018-03-17T12:16:15.538Z,6024
2018-03-17T12:17:15.780Z,6884
2018-03-17T12:18:15.768Z,7712
2018-03-17T12:19:15.745Z,8600
2018-03-17T12:20:15.177Z,8248
2018-03-17T12:21:15.688Z,8132
2018-03-17T12:22:15.389Z,8076
2018-03-17T12:23:15.373Z,7528
2018-03-17T12:24:15.664Z,6580
2018-03-17T12:25:15.321Z,7904
2018-03-17T12:26:15.296Z,6996
2018-03-17T12:27:15.538Z,5348
2018-03-17T12:28:15.512Z,4592
2018-03-17T12:29:15.750Z,5008
2018-03-17T12:30:15.201Z,5948
2018-03-17T12:31:15.435Z,5892
2018-03-17T12:32:15.147Z,7208
2018-03-17T12:33:14.860Z,7772
2018-03-17T12:34:15.627Z,7500
2018-03-17T12:35:15.340Z,6296
2018-03-17T12:36:15.328Z,7308
2018-03-17T12:37:15.341Z,7416
2018-03-17T12:38:15.534Z,7396
2018-03-17T12:39:14.711Z,9284
2018-03-17T12:40:14.949Z,12668
2018-03-17T12:41:14.929Z,14452
2018-03-17T12:42:15.162Z,13936
2018-03-17T12:43:15.419Z,9760
2018-03-17T12:44:15.131Z,9372
2018-03-17T12:45:15.369Z,9808
2018-03-17T12:46:14.805Z,9272
2018-03-17T12:47:15.059Z,8848
2018-03-17T12:48:14.761Z,9500
2018-03-17T12:49:14.996Z,8272
2018-03-17T12:50:14.707Z,6760
2018-03-17T12:51:14.687Z,6636
2018-03-17T12:52:15.187Z,7284
2018-03-17T12:53:14.896Z,7676
2018-03-17T12:54:14.347Z,7684
2018-03-17T12:55:14.323Z,7164
2018-03-17T12:56:14.830Z,7684
2018-03-17T12:57:14.276Z,5780
2018-03-17T12:58:14.788Z,5508
2018-03-17T12:59:14.762Z,5444
2018-03-17T13:00:14.728Z,6648
2018-03-17T13:01:14.981Z,4660
2018-03-17T13:02:14.941Z,4612
2018-03-17T13:03:14.669Z,4012
2018-03-17T13:04:14.103Z,4408
2018-03-17T13:05:14.876Z,4284
2018-03-17T13:06:14.589Z,5316
2018-03-17T13:07:14.560Z,5508
2018-03-17T13:08:14.803Z,6800
2018-03-17T13:09:14.242Z,7692
2018-03-17T13:10:14.214Z,7668
2018-03-17T13:11:14.463Z,7476
2018-03-17T13:12:14.437Z,6436
2018-03-17T13:13:14.149Z,7184
2018-03-17T13:14:14.143Z,7008
2018-03-17T13:15:14.095Z,6172
2018-03-17T13:16:14.332Z,6528
2018-03-17T13:17:14.341Z,6528
2018-03-17T13:18:14.032Z,5676
2018-03-17T13:19:13.738Z,5040
2018-03-17T13:20:14.240Z,5344
2018-03-17T13:21:14.478Z,5292
2018-03-17T13:22:14.247Z,5344
2018-03-17T13:23:14.442Z,5496
2018-03-17T13:24:14.136Z,5148
2018-03-17T13:25:14.113Z,4996
2018-03-17T13:26:13.555Z,4784
2018-03-17T13:27:14.337Z,5060
2018-03-17T13:28:14.307Z,4624
2018-03-17T13:29:14.014Z,4468
2018-03-17T13:30:14.250Z,5092
2018-03-17T13:31:13.697Z,5720
2018-03-17T13:32:13.936Z,5964
2018-03-17T13:33:13.379Z,6092
2018-03-17T13:34:13.883Z,6508
2018-03-17T13:35:13.868Z,7244
2018-03-17T13:36:13.859Z,7312
2018-03-17T13:37:13.551Z,6524
2018-03-17T13:38:13.790Z,6840
2018-03-17T13:39:13.766Z,7212
2018-03-17T13:40:13.210Z,6788
2018-03-17T13:41:13.720Z,6868
2018-03-17T13:42:13.697Z,6532
2018-03-17T13:43:13.672Z,5792
2018-03-17T13:44:13.396Z,5532
2018-03-17T13:45:13.616Z,5800
2018-03-17T13:46:13.326Z,6444
2018-03-17T13:47:13.840Z,6972
2018-03-17T13:48:13.285Z,5748
2018-03-17T13:49:13.520Z,6116
2018-03-17T13:50:13.165Z,5328
2018-03-17T13:51:13.478Z,5500
2018-03-17T13:52:12.911Z,4952
2018-03-17T13:53:13.153Z,4880